Greenfield, CA (93927)

1:04 AM PST on February 22, 2017 (GMT -0800)
Greenfield CA | | Change Station
Active Advisory: Small Craft Advisory

Elev 285 ft 36.33 °N, 121.28 °W | Updated 19 seconds ago

Partly Cloudy
Partly Cloudy
48.0 °F
Feels Like 48 °F
N
2.5
Wind Variable Wind from WNW
Gusts 2.5 mph

Today
High -- | Low -- °F
--% Chance of Precip.
Yesterday
High -- | Low -- °F
Precip. -- in
Pressure 30.29 in
Visibility 10.0 miles
Clouds Few 2000 ft
Windchill 48 °F
Dew Point 47 °F
Humidity 96%
Rainfall 0.00 in
Snow Depth Not available.
6:43 AM 5:53 PM
Waning Crescent, 19% visible
METAR KSNS 220853Z AUTO 24004KT 10SM FEW020 09/08 A3026 RMK AO2 SLP256 T00940078 52001
Pressure 30.29 in
Visibility 10.0 miles
Clouds Few 2000 ft
Windchill 48 °F
Dew Point 47 °F
Humidity 96%
Rainfall 0.00 in
Snow Depth Not available.
6:43 AM 5:53 PM
Waning Crescent, 19% visible
METAR KSNS 220853Z AUTO 24004KT 10SM FEW020 09/08 A3026 RMK AO2 SLP256 T00940078 52001

Get Your Daily Forecast Email!

Thanks for signing up!

Be on the lookout for a verification email in your inbox.

You'll start receiving the daily forecast at 8 AM.

×

10-Day Weather Forecast

Almanac

Astronomy

Feb. 22, 2017 Rise Set
Actual Time
Civil Twilight
Nautical Twilight
Astronomical Twilight
Moon
Length of Visible Light
Length of Day
Tomorrow will be .
, % of the Moon is Illuminated

Today's Extremes

State Highs State Lows

Community

WunderPhotos

Upload Photos

1,962,540 photos uploaded!

WunderBlog® & News

Nearby

Air Quality

  Air Quality AQ Index Pollutant
Not available.

Snow Depth

Station Depth Elevation

Earthquake Activity

City Distance Mag. Time & Date
Minimum magnitude displayed is 2.5.

Coastal Water Temperatures

Place Temperature

Stations

Nearby Weather Stations

Station Location Temp. Windchill Dew Point Humidity Wind Precip. Elev Updated Type
                   

Watches & Warnings

Small Craft Advisory
Issued: 9:09 PM PST Feb. 21, 2017 – National Weather Service

... Small Craft Advisory in effect from 9 am Wednesday to 3 am PST
Thursday...
... Small Craft Advisory for hazardous seas has expired...

The National Weather Service San Francisco has issued a Small
Craft Advisory... which is in effect from 9 am Wednesday to 3 am
PST Thursday.

* Winds and waves: see the coastal waters forecast (cwfmtr) or
our marine Page at http://weather.Gov/sanfrancisco/marine.Php
for more details.

Precautionary/preparedness actions...

A Small Craft Advisory means that wind speeds of 21 to 33 knots
are expected to produce hazardous wave conditions to small craft.
Inexperienced mariners... especially those operating smaller
vessels should avoid navigating in these conditions.